createdAt,value
2022-12-01T00:02:34.310Z,101032.88
2022-12-01T00:05:37.603Z,101031.34
2022-12-01T00:08:40.305Z,101026.91
2022-12-01T00:11:43.493Z,101031.59
2022-12-01T00:14:55.131Z,101037.16
2022-12-01T00:17:59.034Z,101038.50
2022-12-01T00:21:01.816Z,101032.25
2022-12-01T00:24:04.738Z,101031.47
2022-12-01T00:27:08.829Z,101039.66
2022-12-01T00:30:12.948Z,101021.59
2022-12-01T00:33:15.718Z,101027.19
2022-12-01T00:36:18.520Z,101030.31
2022-12-01T00:39:21.369Z,101033.09
2022-12-01T00:42:25.493Z,101027.06
2022-12-01T00:45:28.329Z,101019.84
2022-12-01T00:48:31.116Z,101017.19
2022-12-01T00:51:33.904Z,101017.84
2022-12-01T00:54:36.633Z,101023.06
2022-12-01T00:57:41.190Z,101023.28
2022-12-01T01:00:44.029Z,101013.47
2022-12-01T01:03:46.755Z,101023.06
2022-12-01T01:06:49.734Z,101024.88
2022-12-01T01:09:52.520Z,101030.31
2022-12-01T01:12:56.709Z,101039.94
2022-12-01T01:16:00.425Z,101036.69
2022-12-01T01:19:03.167Z,101036.31
2022-12-01T01:22:05.918Z,101041.53
2022-12-01T01:25:09.089Z,101042.59
2022-12-01T01:28:13.251Z,101047.53
2022-12-01T01:31:17.763Z,101038.69
2022-12-01T01:34:20.648Z,101031.97
2022-12-01T01:37:23.476Z,101029.94
2022-12-01T01:40:26.270Z,101017.69
2022-12-01T01:43:44.307Z,101018.94
2022-12-01T01:46:47.162Z,101008.56
2022-12-01T01:49:50.467Z,100999.94
2022-12-01T01:52:58.255Z,101004.09
2022-12-01T01:56:01.950Z,101009.72
2022-12-01T01:59:06.128Z,101006.47
2022-12-01T02:02:10.123Z,101017.34
2022-12-01T02:05:14.087Z,101008.81
2022-12-01T02:08:16.822Z,101003.88
2022-12-01T02:11:49.491Z,100999.78
2022-12-01T02:15:05.924Z,100998.94
2022-12-01T02:18:17.461Z,100999.44
2022-12-01T02:21:25.620Z,101018.47
2022-12-01T02:24:51.972Z,101014.22
2022-12-01T02:28:06.019Z,101003.00
2022-12-01T02:31:15.345Z,100998.81
2022-12-01T02:34:24.189Z,100990.72
2022-12-01T02:37:32.512Z,100992.34
2022-12-01T02:40:39.595Z,100980.34
2022-12-01T02:43:45.494Z,100989.97
2022-12-01T02:46:52.793Z,100989.59
2022-12-01T02:49:56.463Z,100998.16
2022-12-01T02:53:00.111Z,101001.56
2022-12-01T02:56:07.083Z,101001.28
2022-12-01T02:59:11.120Z,101002.56
2022-12-01T03:02:21.916Z,100992.13
2022-12-01T03:05:27.662Z,101000.47
2022-12-01T03:08:33.899Z,101000.13
2022-12-01T03:11:42.182Z,101003.75
2022-12-01T03:14:47.205Z,100991.84
2022-12-01T03:17:54.443Z,101002.50
2022-12-01T03:21:00.223Z,100998.88
2022-12-01T03:24:05.410Z,101015.53
2022-12-01T03:27:09.954Z,101011.91
2022-12-01T03:30:13.908Z,101013.59
2022-12-01T03:33:20.089Z,101023.28
2022-12-01T03:36:26.613Z,101023.41
2022-12-01T03:39:33.303Z,101021.47
2022-12-01T03:42:38.585Z,101016.81
2022-12-01T03:45:44.905Z,101028.63
2022-12-01T03:48:49.098Z,101024.47
2022-12-01T03:52:06.862Z,101027.06
2022-12-01T03:55:12.637Z,101022.78
2022-12-01T03:58:17.947Z,101023.56
2022-12-01T04:01:22.451Z,101026.28
2022-12-01T04:04:26.612Z,101020.91
2022-12-01T04:07:29.400Z,101017.16
2022-12-01T04:10:33.143Z,101026.09
2022-12-01T04:13:34.890Z,101033.47
2022-12-01T04:16:37.614Z,101039.16
2022-12-01T04:19:41.779Z,101026.56
2022-12-01T04:22:44.526Z,101020.66
2022-12-01T04:25:47.323Z,101018.13
2022-12-01T04:28:50.109Z,101038.25
2022-12-01T04:31:52.924Z,101026.63
2022-12-01T04:34:57.053Z,101027.59
2022-12-01T04:38:00.422Z,101035.41
2022-12-01T04:41:03.173Z,101022.94
2022-12-01T04:44:06.200Z,101033.69
2022-12-01T04:47:09.025Z,101030.06
2022-12-01T04:50:13.505Z,101045.09
2022-12-01T04:53:16.324Z,101039.94
2022-12-01T04:56:19.107Z,101037.72
2022-12-01T04:59:21.988Z,101037.09
2022-12-01T05:02:24.829Z,101042.44
2022-12-01T05:05:29.128Z,101041.25
2022-12-01T05:08:31.877Z,101057.22
2022-12-01T05:11:34.686Z,101049.25
2022-12-01T05:14:37.441Z,101054.56
2022-12-01T05:17:40.258Z,101052.00
2022-12-01T05:20:58.699Z,101054.78
2022-12-01T05:24:01.437Z,101064.47
2022-12-01T05:27:04.208Z,101064.59
2022-12-01T05:30:07.515Z,101060.84
2022-12-01T05:33:10.345Z,101055.63
2022-12-01T05:36:14.474Z,101062.66
2022-12-01T05:39:17.279Z,101068.66
2022-12-01T05:42:20.037Z,101057.22
2022-12-01T05:45:22.824Z,101061.72
2022-12-01T05:48:25.618Z,101064.22
2022-12-01T05:51:29.762Z,101064.28
2022-12-01T05:54:38.100Z,101066.78
2022-12-01T05:57:40.827Z,101068.28
2022-12-01T06:00:45.962Z,101070.09
2022-12-01T06:03:49.120Z,101069.31
2022-12-01T06:06:53.296Z,101064.84
2022-12-01T06:09:56.079Z,101055.94
2022-12-01T06:12:58.865Z,101058.66
2022-12-01T06:16:02.703Z,101063.16
2022-12-01T06:19:05.424Z,101063.03
2022-12-01T06:22:09.606Z,101062.75
2022-12-01T06:25:12.341Z,101064.66
2022-12-01T06:28:15.204Z,101063.16
2022-12-01T06:31:18.023Z,101072.75
2022-12-01T06:34:20.822Z,101071.69
2022-12-01T06:37:24.971Z,101077.25
2022-12-01T06:40:28.215Z,101081.50
2022-12-01T06:43:31.383Z,101072.66
2022-12-01T06:46:34.194Z,101082.34
2022-12-01T06:49:38.001Z,101080.44
2022-12-01T06:52:42.223Z,101081.28
2022-12-01T06:55:45.044Z,101083.00
2022-12-01T06:58:48.079Z,101085.03
2022-12-01T07:01:50.913Z,101096.53
2022-12-01T07:04:53.707Z,101089.19
2022-12-01T07:07:59.710Z,101089.50
2022-12-01T07:11:04.200Z,101096.53
2022-12-01T07:14:07.009Z,101099.88
2022-12-01T07:17:10.391Z,101098.34
2022-12-01T07:20:13.429Z,101089.19
2022-12-01T07:23:17.583Z,101091.88
2022-12-01T07:26:20.406Z,101084.91
2022-12-01T07:29:23.186Z,101096.22
2022-12-01T07:32:25.970Z,101099.63
2022-12-01T07:35:28.712Z,101084.63
2022-12-01T07:38:33.522Z,101095.16
2022-12-01T07:41:36.401Z,101086.31
2022-12-01T07:44:39.127Z,101079.06
2022-12-01T07:47:41.959Z,101087.06
2022-12-01T14:15:34.984Z,100818.22
2022-12-01T14:18:38.998Z,100817.44
2022-12-01T14:21:43.317Z,100815.97
2022-12-01T14:24:53.410Z,100819.03
2022-12-01T14:27:57.714Z,100815.59
2022-12-01T14:31:07.150Z,100809.59
2022-12-01T14:34:15.738Z,100808.09
2022-12-01T14:37:23.164Z,100809.09
2022-12-01T14:40:26.842Z,100818.56
2022-12-01T14:43:47.186Z,100817.75
2022-12-01T14:46:54.790Z,100828.94
2022-12-01T14:50:00.978Z,100828.59
2022-12-01T14:53:07.860Z,100822.13
2022-12-01T14:56:12.333Z,100828.50
2022-12-01T14:59:16.518Z,100830.47
2022-12-01T15:02:20.807Z,100821.75
2022-12-01T15:05:25.264Z,100828.00
2022-12-01T15:08:58.446Z,100823.28
2022-12-01T15:11:53.644Z,100826.00
2022-12-01T15:14:56.715Z,100825.09
2022-12-01T15:18:01.862Z,100836.94
2022-12-01T15:21:06.321Z,100832.63
2022-12-01T15:24:21.598Z,100847.34
2022-12-01T15:27:28.250Z,100849.06
2022-12-01T15:30:32.466Z,100848.91
2022-12-01T15:33:38.886Z,100854.13
2022-12-01T15:36:41.740Z,100853.63
2022-12-01T15:39:46.764Z,100849.84
2022-12-01T15:43:01.869Z,100844.53
2022-12-01T15:46:12.508Z,100847.75
2022-12-01T15:49:20.912Z,100842.53
2022-12-01T15:52:23.895Z,100837.09
2022-12-01T15:55:28.805Z,100833.72
2022-12-01T15:58:34.911Z,100843.75
2022-12-01T16:01:38.490Z,100845.47
2022-12-01T16:04:42.722Z,100838.25
2022-12-01T16:11:12.593Z,100850.38
2022-12-01T16:14:27.563Z,100849.34
2022-12-01T16:17:42.507Z,100842.97
2022-12-01T16:20:46.679Z,100840.19
2022-12-01T16:23:59.166Z,100846.19
2022-12-01T16:27:04.355Z,100841.63
2022-12-01T16:30:09.293Z,100835.06
2022-12-01T16:33:17.063Z,100836.09
2022-12-01T16:36:26.689Z,100835.31
2022-12-01T16:39:30.017Z,100832.66
2022-12-01T16:42:32.690Z,100843.84
2022-12-01T16:45:35.502Z,100835.88
2022-12-01T16:48:38.620Z,100836.72
2022-12-01T16:52:11.179Z,100831.09
2022-12-01T16:55:17.897Z,100830.03
2022-12-01T16:58:21.280Z,100825.97
2022-12-01T17:01:24.778Z,100830.44
2022-12-01T17:04:29.954Z,100832.06
2022-12-01T17:07:36.726Z,100841.94
2022-12-01T17:10:42.407Z,100836.53
2022-12-01T17:13:48.474Z,100846.75
2022-12-01T17:16:51.139Z,100842.84
2022-12-01T17:19:59.382Z,100848.66
2022-12-01T17:23:07.589Z,100836.13
2022-12-01T17:26:17.719Z,100836.25
2022-12-01T17:32:45.605Z,100841.03
2022-12-01T17:35:50.098Z,100840.38
2022-12-01T17:38:54.147Z,100842.75
2022-12-01T17:42:00.278Z,100847.22
2022-12-01T17:49:24.900Z,100845.41
2022-12-01T17:52:28.688Z,100843.28
2022-12-01T17:55:33.398Z,100837.84
2022-12-01T17:58:36.380Z,100846.16
2022-12-01T18:01:41.167Z,100842.75
2022-12-01T18:04:44.022Z,100839.78
2022-12-01T18:07:46.928Z,100845.75
2022-12-01T18:10:51.641Z,100845.88
2022-12-01T18:13:55.040Z,100844.81
2022-12-01T18:16:57.845Z,100847.56
2022-12-01T18:20:00.662Z,100851.94
2022-12-01T18:23:03.497Z,100855.34
2022-12-01T18:26:15.381Z,100852.69
2022-12-01T18:29:26.141Z,100847.16
2022-12-01T18:32:29.152Z,100846.88
2022-12-01T18:35:32.224Z,100848.56
2022-12-01T18:38:35.435Z,100851.34
2022-12-01T18:41:39.948Z,100856.66
2022-12-01T18:44:43.295Z,100861.09
2022-12-01T18:47:46.637Z,100859.13
2022-12-01T18:50:51.014Z,100863.69
2022-12-01T18:53:57.231Z,100871.59
2022-12-01T18:57:01.386Z,100878.28
2022-12-01T19:00:05.829Z,100877.34
2022-12-01T19:03:09.613Z,100861.91
2022-12-01T19:06:13.013Z,100870.56
2022-12-01T19:09:17.587Z,100868.19
2022-12-01T19:12:21.904Z,100863.63
2022-12-01T19:15:25.186Z,100870.75
2022-12-01T19:19:04.221Z,100879.50
2022-12-01T19:22:07.080Z,100873.22
2022-12-01T19:25:11.619Z,100885.69
2022-12-01T19:28:15.805Z,100894.41
2022-12-01T19:31:20.254Z,100892.50
2022-12-01T19:34:23.247Z,100882.06
2022-12-01T19:37:26.447Z,100892.72
2022-12-01T19:40:29.449Z,100892.16
2022-12-01T19:43:34.177Z,100887.13
2022-12-01T19:46:36.956Z,100887.34
2022-12-01T19:49:39.758Z,100890.38
2022-12-01T19:52:42.522Z,100888.00
2022-12-01T19:55:45.442Z,100888.44
2022-12-01T19:58:49.765Z,100888.59
2022-12-01T20:01:52.553Z,100887.19
2022-12-01T20:04:56.637Z,100882.00
2022-12-01T20:07:59.480Z,100882.72
2022-12-01T20:11:03.641Z,100892.97
2022-12-01T20:14:08.553Z,100887.75
2022-12-01T20:17:15.708Z,100891.94
2022-12-01T20:20:18.940Z,100881.75
2022-12-01T20:23:21.748Z,100886.97
2022-12-01T20:26:30.042Z,100885.75
2022-12-01T20:29:34.844Z,100890.22
2022-12-01T20:32:37.609Z,100889.72
2022-12-01T20:35:40.409Z,100887.97
2022-12-01T20:38:43.685Z,100888.63
2022-12-01T20:41:46.798Z,100884.16
2022-12-01T20:44:52.130Z,100892.81
2022-12-01T20:47:55.111Z,100891.75
2022-12-01T20:50:57.909Z,100894.50
2022-12-01T20:54:26.756Z,100900.78
2022-12-01T20:57:23.554Z,100901.44
2022-12-01T21:00:27.719Z,100896.97
2022-12-01T21:03:30.460Z,100898.59
2022-12-01T21:06:33.307Z,100903.91
2022-12-01T21:09:36.117Z,100900.19
2022-12-01T21:12:57.028Z,100905.38
2022-12-01T21:16:05.042Z,100896.66
2022-12-01T21:19:15.854Z,100903.84
2022-12-01T21:22:19.366Z,100893.94
2022-12-01T21:25:23.964Z,100893.84
2022-12-01T21:28:27.735Z,100904.91
2022-12-01T21:31:33.030Z,100894.56
2022-12-01T21:34:35.953Z,100898.28
2022-12-01T21:37:38.668Z,100890.44
2022-12-01T21:40:43.038Z,100891.69
2022-12-01T21:43:45.832Z,100891.69
2022-12-01T21:46:51.273Z,100886.28
2022-12-01T21:49:54.872Z,100895.13
2022-12-01T21:52:58.981Z,100883.53
2022-12-01T21:56:01.963Z,100892.47
2022-12-01T21:59:12.166Z,100889.38
2022-12-01T22:02:27.066Z,100887.00
2022-12-01T22:05:32.587Z,100884.16
2022-12-01T22:08:36.698Z,100885.13
2022-12-01T22:11:39.468Z,100886.03
2022-12-01T22:14:42.255Z,100884.25
2022-12-01T22:17:47.434Z,100871.56
2022-12-01T22:20:50.194Z,100873.50
2022-12-01T22:23:58.500Z,100876.72
2022-12-01T22:27:07.315Z,100870.63
2022-12-01T22:30:14.926Z,100868.50
2022-12-01T22:33:21.080Z,100867.66
2022-12-01T22:36:25.645Z,100879.69
2022-12-01T22:39:30.914Z,100869.25
2022-12-01T22:42:34.654Z,100873.19
2022-12-01T22:45:37.573Z,100872.75
2022-12-01T22:48:42.893Z,100867.75
2022-12-01T22:51:47.502Z,100864.03
2022-12-01T22:54:51.371Z,100876.16
2022-12-01T22:57:55.122Z,100878.31
2022-12-01T23:00:59.433Z,100885.34
2022-12-01T23:04:13.332Z,100877.34
2022-12-01T23:07:32.608Z,100882.69
2022-12-01T23:10:36.064Z,100883.41
2022-12-01T23:13:38.777Z,100881.81
2022-12-01T23:16:41.704Z,100880.97
2022-12-01T23:19:45.831Z,100868.28
2022-12-01T23:22:48.599Z,100866.59
2022-12-01T23:25:51.717Z,100864.03
2022-12-01T23:28:57.477Z,100870.31
2022-12-01T23:32:00.269Z,100871.06
2022-12-01T23:35:04.573Z,100871.06
2022-12-01T23:38:10.193Z,100873.50
2022-12-01T23:41:15.135Z,100878.75
2022-12-01T23:44:20.489Z,100882.88
2022-12-01T23:47:26.001Z,100886.41
2022-12-01T23:50:31.312Z,100887.59
2022-12-01T23:53:34.453Z,100876.81
2022-12-01T23:56:38.736Z,100882.16
2022-12-01T23:59:41.591Z,100874.25
